createdAt,value
2023-02-04T00:00:58.431Z,14.01
2023-02-04T00:04:00.476Z,13.95
2023-02-04T00:07:03.980Z,13.81
2023-02-04T00:10:07.554Z,13.79
2023-02-04T00:13:09.720Z,13.62
2023-02-04T00:16:12.424Z,13.67
2023-02-04T00:19:16.665Z,13.62
2023-02-04T00:22:18.915Z,13.62
2023-02-04T00:25:21.275Z,13.48
2023-02-04T00:28:25.552Z,13.50
2023-02-04T00:31:31.240Z,13.44
2023-02-04T00:34:33.661Z,13.39
2023-02-04T00:37:38.273Z,13.44
2023-02-04T00:40:40.456Z,13.39
2023-02-04T00:43:42.792Z,13.26
2023-02-04T00:46:45.885Z,13.09
2023-02-04T00:49:47.952Z,13.12
2023-02-04T00:52:50.292Z,13.17
2023-02-04T00:55:52.285Z,13.21
2023-02-04T00:58:54.582Z,13.10
2023-02-04T01:01:57.833Z,13.13
2023-02-04T01:04:59.886Z,12.89
2023-02-04T01:08:01.838Z,12.94
2023-02-04T01:11:04.766Z,12.72
2023-02-04T01:14:07.677Z,12.72
2023-02-04T01:17:12.451Z,12.44
2023-02-04T01:20:16.557Z,12.56
2023-02-04T01:23:19.011Z,12.51
2023-02-04T01:26:21.863Z,12.41
2023-02-04T01:29:24.050Z,12.41
2023-02-04T01:32:28.595Z,12.49
2023-02-04T01:35:33.289Z,12.58
2023-02-04T01:38:35.467Z,12.47
2023-02-04T01:41:38.586Z,12.40
2023-02-04T01:44:41.280Z,12.31
2023-02-04T01:47:44.598Z,12.28
2023-02-04T01:50:51.220Z,12.29
2023-02-04T01:53:55.602Z,12.08
2023-02-04T01:56:57.915Z,11.82
2023-02-04T02:00:00.303Z,11.58
2023-02-04T02:03:05.144Z,11.67
2023-02-04T02:06:09.920Z,11.64
2023-02-04T02:09:12.031Z,11.82
2023-02-04T02:12:14.059Z,11.79
2023-02-04T02:15:17.560Z,11.81
2023-02-04T02:18:19.682Z,12.02
2023-02-04T02:21:30.981Z,12.11
2023-02-04T02:24:35.507Z,12.01
2023-02-04T02:27:37.969Z,12.07
2023-02-04T02:30:40.665Z,12.12
2023-02-04T02:33:43.257Z,12.02
2023-02-04T02:36:45.452Z,11.93
2023-02-04T02:39:47.974Z,11.90
2023-02-04T02:42:53.636Z,11.71
2023-02-04T02:45:58.573Z,11.73
2023-02-04T02:49:00.974Z,11.69
2023-02-04T02:52:03.032Z,11.60
2023-02-04T02:55:05.472Z,11.66
2023-02-04T02:58:34.930Z,11.76
2023-02-04T03:01:37.389Z,11.76
2023-02-04T03:04:47.085Z,11.95
2023-02-04T03:07:51.125Z,12.00
2023-02-04T03:10:53.386Z,12.12
2023-02-04T03:13:57.739Z,12.06
2023-02-04T03:17:01.742Z,12.12
2023-02-04T03:20:04.971Z,11.97
2023-02-04T03:23:07.217Z,12.01
2023-02-04T03:26:10.863Z,11.93
2023-02-04T03:29:13.198Z,11.67
2023-02-04T03:32:17.326Z,11.69
2023-02-04T03:35:20.019Z,11.57
2023-02-04T03:38:22.157Z,11.55
2023-02-04T03:41:25.528Z,11.55
2023-02-04T03:44:27.660Z,11.56
2023-02-04T03:47:29.673Z,11.57
2023-02-04T03:50:31.958Z,11.82
2023-02-04T03:53:34.151Z,12.01
2023-02-04T03:56:36.269Z,12.07
2023-02-04T03:59:38.365Z,11.91
2023-02-04T04:02:41.394Z,11.86
2023-02-04T04:05:44.605Z,11.95
2023-02-04T04:08:46.725Z,11.82
2023-02-04T04:11:48.764Z,11.73
2023-02-04T04:14:51.039Z,11.41
2023-02-04T04:17:54.396Z,11.32
2023-02-04T04:20:56.540Z,11.22
2023-02-04T04:23:59.245Z,11.26
2023-02-04T04:27:01.481Z,11.44
2023-02-04T04:30:04.484Z,11.39
2023-02-04T04:33:06.992Z,11.36
2023-02-04T04:36:09.361Z,11.61
2023-02-04T04:39:11.600Z,11.86
2023-02-04T04:42:15.111Z,11.76
2023-02-04T04:45:17.307Z,11.71
2023-02-04T04:48:20.272Z,11.62
2023-02-04T04:51:22.399Z,11.67
2023-02-04T04:54:24.647Z,11.66
2023-02-04T04:57:26.708Z,11.54
2023-02-04T05:00:28.747Z,11.31
2023-02-04T05:03:30.811Z,11.03
2023-02-04T05:06:32.842Z,11.17
2023-02-04T05:09:34.884Z,11.09
2023-02-04T05:12:36.997Z,11.36
2023-02-04T05:15:39.461Z,11.27
2023-02-04T05:18:41.779Z,11.24
2023-02-04T05:21:43.787Z,11.52
2023-02-04T05:24:48.010Z,11.54
2023-02-04T05:27:50.187Z,11.44
2023-02-04T05:30:52.438Z,11.67
2023-02-04T05:33:54.857Z,11.60
2023-02-04T05:36:56.941Z,11.55
2023-02-04T05:39:59.106Z,11.51
2023-02-04T05:43:01.852Z,11.33
2023-02-04T05:46:04.473Z,11.21
2023-02-04T05:49:07.704Z,11.21
2023-02-04T05:52:09.819Z,11.22
2023-02-04T05:55:12.842Z,11.30
2023-02-04T05:58:15.094Z,11.20
2023-02-04T06:01:18.611Z,11.31
2023-02-04T06:04:20.828Z,11.11
2023-02-04T06:07:23.022Z,11.40
2023-02-04T06:10:25.287Z,11.77
2023-02-04T06:13:27.371Z,11.85
2023-02-04T06:16:29.785Z,11.95
2023-02-04T06:19:31.826Z,11.94
2023-02-04T06:22:34.052Z,12.14
2023-02-04T06:25:36.953Z,12.38
2023-02-04T06:28:39.941Z,12.67
2023-02-04T06:31:42.511Z,12.75
2023-02-04T06:34:44.990Z,12.85
2023-02-04T06:37:47.586Z,12.86
2023-02-04T06:40:53.702Z,12.92
2023-02-04T06:43:55.762Z,12.96
2023-02-04T06:46:58.668Z,12.79
2023-02-04T06:50:00.682Z,12.69
2023-02-04T06:53:02.817Z,12.59
2023-02-04T06:56:07.871Z,12.57
2023-02-04T06:59:11.264Z,12.40
2023-02-04T07:02:13.359Z,12.33
2023-02-04T07:05:19.714Z,12.31
2023-02-04T07:08:24.203Z,12.74
2023-02-04T07:11:26.209Z,13.16
2023-02-04T07:14:30.285Z,13.15
2023-02-04T07:17:32.557Z,13.98
2023-02-04T07:20:34.988Z,14.84
2023-02-04T07:23:40.189Z,15.15
2023-02-04T07:26:42.909Z,15.80
2023-02-04T07:29:45.283Z,16.23
2023-02-04T07:32:47.483Z,16.69
2023-02-04T07:35:49.662Z,16.42
2023-02-04T07:38:52.104Z,16.83
2023-02-04T07:41:54.137Z,17.96
2023-02-04T07:44:59.885Z,17.25
2023-02-04T07:48:01.931Z,17.18
2023-02-04T07:51:04.230Z,18.06
2023-02-04T07:54:06.402Z,18.08
2023-02-04T07:57:08.509Z,17.51
2023-02-04T08:00:11.205Z,18.10
2023-02-04T08:03:16.537Z,18.17
2023-02-04T08:06:19.234Z,17.48
2023-02-04T08:09:21.260Z,18.24
2023-02-04T08:12:23.337Z,19.07
2023-02-04T08:15:25.532Z,18.71
2023-02-04T08:18:27.539Z,18.14
2023-02-04T08:21:29.671Z,18.48
2023-02-04T08:24:33.146Z,17.94
2023-02-04T08:27:35.299Z,17.93
2023-02-04T08:30:37.536Z,19.50
2023-02-04T08:33:40.089Z,18.88
2023-02-04T08:36:42.144Z,18.53
2023-02-04T08:39:47.534Z,19.17
2023-02-04T08:42:49.668Z,19.66
2023-02-04T08:45:51.967Z,18.60
2023-02-04T08:48:54.044Z,18.53
2023-02-04T08:51:56.030Z,20.24
2023-02-04T08:54:58.130Z,19.30
2023-02-04T08:58:01.402Z,18.66
2023-02-04T09:01:03.607Z,19.76
2023-02-04T09:04:05.719Z,19.06
2023-02-04T09:07:07.759Z,18.51
2023-02-04T09:10:10.151Z,19.49
2023-02-04T09:13:12.350Z,19.32
2023-02-04T09:16:18.019Z,18.62
2023-02-04T09:19:25.593Z,18.61
2023-02-04T09:22:27.680Z,20.05
2023-02-04T09:25:29.890Z,19.24
2023-02-04T09:28:32.657Z,18.82
2023-02-04T09:31:34.919Z,20.70
2023-02-04T09:34:37.055Z,20.44
2023-02-04T09:37:39.244Z,19.71
2023-02-04T09:40:51.510Z,20.59
2023-02-04T09:43:53.590Z,20.96
2023-02-04T09:47:00.737Z,19.82
2023-02-04T09:50:03.213Z,20.14
2023-02-04T09:53:07.853Z,21.07
2023-02-04T09:56:13.294Z,20.85
2023-02-04T09:59:20.516Z,20.00
2023-02-04T10:02:24.398Z,21.08
2023-02-04T10:05:35.172Z,20.77
2023-02-04T10:08:37.377Z,19.80
2023-02-04T10:11:43.178Z,20.78
2023-02-04T10:14:45.419Z,20.90
2023-02-04T10:18:14.420Z,20.07
2023-02-04T10:21:20.979Z,20.70
2023-02-04T10:24:26.666Z,21.16
2023-02-04T10:27:28.921Z,20.69
2023-02-04T10:30:38.411Z,20.46
2023-02-04T10:33:40.581Z,21.30
2023-02-04T10:36:46.330Z,20.90
2023-02-04T10:39:50.143Z,20.34
2023-02-04T10:42:53.407Z,21.42
2023-02-04T10:46:01.732Z,21.19
2023-02-04T10:49:04.795Z,20.84
2023-02-04T10:52:17.111Z,21.28
2023-02-04T10:55:23.451Z,21.27
2023-02-04T10:58:29.805Z,20.77
2023-02-04T11:01:32.954Z,20.99
2023-02-04T11:04:34.977Z,20.93
2023-02-04T11:07:37.052Z,20.12
2023-02-04T11:10:46.870Z,19.66
2023-02-04T11:13:55.296Z,19.77
2023-02-04T11:17:01.751Z,20.01
2023-02-04T11:20:39.825Z,19.47
2023-02-04T11:23:42.926Z,19.20
2023-02-04T11:27:06.468Z,20.71
2023-02-04T11:30:21.898Z,20.36
2023-02-04T11:33:25.321Z,19.33
2023-02-04T11:36:27.384Z,21.18
2023-02-04T11:39:37.573Z,20.22
2023-02-04T11:42:43.610Z,19.74
2023-02-04T11:45:48.743Z,21.24
2023-02-04T11:48:55.826Z,21.78
2023-02-04T11:52:08.952Z,20.72
2023-02-04T11:55:12.236Z,21.22
2023-02-04T11:58:23.089Z,21.22
2023-02-04T12:01:31.643Z,21.04
2023-02-04T12:04:36.049Z,20.85
2023-02-04T12:07:39.194Z,21.80
2023-02-04T12:10:49.461Z,21.79
2023-02-04T12:14:13.069Z,21.20
2023-02-04T12:17:19.886Z,21.50
2023-02-04T12:20:22.062Z,21.26
2023-02-04T12:23:25.155Z,20.60
2023-02-04T12:26:28.436Z,21.55
2023-02-04T12:29:30.684Z,21.46
2023-02-04T12:32:32.719Z,20.87
2023-02-04T12:35:39.162Z,21.75
2023-02-04T12:38:49.364Z,21.69
2023-02-04T12:41:51.422Z,20.82
2023-02-04T12:44:53.771Z,20.66
2023-02-04T12:47:55.940Z,21.40
2023-02-04T12:50:57.969Z,21.22
2023-02-04T12:54:00.045Z,20.58
2023-02-04T12:57:02.983Z,21.45
2023-02-04T13:00:05.416Z,21.71
2023-02-04T13:03:07.461Z,21.57
2023-02-04T13:06:11.322Z,21.11
2023-02-04T13:09:13.586Z,21.67
2023-02-04T13:12:16.389Z,21.67
2023-02-04T13:15:18.732Z,21.17
2023-02-04T13:18:20.892Z,21.70
2023-02-04T13:21:23.009Z,21.83
2023-02-04T13:24:25.086Z,21.28
2023-02-04T13:27:28.117Z,21.05
2023-02-04T13:30:30.473Z,21.02
2023-02-04T13:33:33.264Z,20.78
2023-02-04T13:36:35.421Z,20.83
2023-02-04T13:39:37.463Z,20.98
2023-02-04T13:42:39.575Z,20.50
2023-02-04T13:45:49.594Z,20.03
2023-02-04T13:48:51.872Z,20.91
2023-02-04T13:51:56.708Z,20.58
2023-02-04T13:54:59.529Z,19.80
2023-02-04T13:58:01.492Z,20.83
2023-02-04T14:01:04.509Z,20.88
2023-02-04T14:04:06.692Z,20.54
2023-02-04T14:07:10.740Z,20.42
2023-02-04T14:10:12.796Z,20.34
2023-02-04T14:13:15.113Z,20.32
2023-02-04T14:16:17.859Z,19.99
2023-02-04T14:19:20.146Z,20.52
2023-02-04T14:22:23.609Z,19.36
2023-02-04T14:25:26.207Z,19.97
2023-02-04T14:28:28.234Z,20.22
2023-02-04T14:31:30.440Z,20.17
2023-02-04T14:34:32.763Z,19.94
2023-02-04T14:37:35.137Z,20.29
2023-02-04T14:40:37.436Z,20.01
2023-02-04T14:43:39.481Z,20.01
2023-02-04T14:46:44.832Z,19.76
2023-02-04T14:49:47.004Z,20.12
2023-02-04T14:52:49.237Z,19.73
2023-02-04T14:55:51.285Z,19.64
2023-02-04T14:58:53.408Z,20.37
2023-02-04T15:01:55.341Z,20.19
2023-02-04T15:04:57.311Z,19.30
2023-02-04T15:07:59.247Z,18.51
2023-02-04T15:11:01.419Z,19.09
2023-02-04T15:14:04.586Z,20.42
2023-02-04T15:17:06.563Z,22.92
2023-02-04T15:20:09.570Z,21.81
2023-02-04T15:23:30.097Z,19.94
2023-02-04T15:26:51.530Z,19.59
2023-02-04T15:30:12.387Z,19.68
2023-02-04T15:33:33.168Z,19.50
2023-02-04T15:36:53.926Z,19.08
2023-02-04T15:40:14.792Z,18.43
2023-02-04T15:43:35.677Z,19.20
2023-02-04T15:46:37.826Z,18.98
2023-02-04T15:49:40.007Z,20.30
2023-02-04T15:52:42.448Z,21.24
2023-02-04T15:55:44.801Z,20.73
2023-02-04T15:58:46.925Z,19.51
2023-02-04T16:01:49.765Z,19.43
2023-02-04T16:04:52.056Z,19.64
2023-02-04T16:07:54.201Z,20.12
2023-02-04T16:10:56.239Z,19.73
2023-02-04T16:13:58.911Z,18.76
2023-02-04T16:17:01.972Z,19.80
2023-02-04T16:20:04.852Z,20.75
2023-02-04T16:23:07.722Z,20.02
2023-02-04T16:26:09.799Z,19.60
2023-02-04T16:29:11.871Z,20.76
2023-02-04T16:32:15.224Z,20.66
2023-02-04T16:35:17.474Z,19.70
2023-02-04T16:38:19.681Z,18.57
2023-02-04T16:41:21.958Z,20.16
2023-02-04T16:44:24.060Z,20.37
2023-02-04T16:47:26.297Z,20.22
2023-02-04T16:50:28.350Z,19.88
2023-02-04T16:53:30.692Z,20.67
2023-02-04T16:56:35.721Z,20.31
2023-02-04T16:59:38.430Z,19.40
2023-02-04T17:02:40.688Z,19.89
2023-02-04T17:05:43.176Z,20.72
2023-02-04T17:08:45.180Z,19.75
2023-02-04T17:11:47.327Z,19.09
2023-02-04T17:14:49.319Z,20.18
2023-02-04T17:17:51.365Z,20.63
2023-02-04T17:20:53.338Z,19.61
2023-02-04T17:23:56.256Z,19.58
2023-02-04T17:26:59.304Z,20.18
2023-02-04T17:30:01.452Z,20.47
2023-02-04T17:33:03.671Z,19.66
2023-02-04T17:36:06.344Z,20.24
2023-02-04T17:39:08.634Z,20.53
2023-02-04T17:42:10.714Z,19.88
2023-02-04T17:45:12.779Z,20.21
2023-02-04T17:48:15.452Z,20.64
2023-02-04T17:51:18.333Z,20.47
2023-02-04T17:54:20.589Z,20.01
2023-02-04T17:57:24.214Z,20.61
2023-02-04T18:00:29.263Z,20.65
2023-02-04T18:03:32.651Z,19.63
2023-02-04T18:06:38.032Z,20.32
2023-02-04T18:09:40.152Z,20.21
2023-02-04T18:12:42.249Z,19.56
2023-02-04T18:15:55.579Z,19.48
2023-02-04T18:19:19.364Z,18.96
2023-02-04T18:22:25.060Z,18.64
2023-02-04T18:25:27.028Z,19.13
2023-02-04T18:28:29.130Z,19.84
2023-02-04T18:31:51.209Z,20.46
2023-02-04T18:34:55.457Z,20.53
2023-02-04T18:37:58.015Z,20.27
2023-02-04T18:41:02.715Z,20.33
2023-02-04T18:44:29.448Z,19.90
2023-02-04T18:47:37.152Z,19.77
2023-02-04T18:50:41.678Z,19.68
2023-02-04T18:53:44.405Z,19.55
2023-02-04T18:56:46.533Z,18.04
2023-02-04T19:00:00.329Z,18.82
2023-02-04T19:03:14.570Z,19.73
2023-02-04T19:06:27.477Z,18.38
2023-02-04T19:09:35.890Z,18.62
2023-02-04T19:12:41.014Z,18.21
2023-02-04T19:15:45.327Z,18.43
2023-02-04T19:18:47.715Z,18.78
2023-02-04T19:21:50.641Z,18.42
2023-02-04T19:25:22.310Z,17.81
2023-02-04T19:28:37.423Z,18.91
2023-02-04T19:31:42.169Z,20.08
2023-02-04T19:34:45.282Z,18.78
2023-02-04T19:37:54.245Z,18.98
2023-02-04T19:40:56.718Z,19.58
2023-02-04T19:44:14.164Z,20.74
2023-02-04T19:47:25.009Z,20.75
2023-02-04T19:50:32.308Z,19.27
2023-02-04T19:53:34.710Z,19.74
2023-02-04T19:56:39.955Z,20.75
2023-02-04T19:59:42.065Z,20.13
2023-02-04T20:02:44.243Z,20.05
2023-02-04T20:05:47.068Z,20.48
2023-02-04T20:08:52.942Z,20.36
2023-02-04T20:12:00.609Z,19.86
2023-02-04T20:15:19.485Z,20.14
2023-02-04T20:18:23.565Z,20.72
2023-02-04T20:21:25.962Z,20.29
2023-02-04T20:24:35.416Z,19.73
2023-02-04T20:27:41.544Z,20.20
2023-02-04T20:30:44.107Z,20.38
2023-02-04T20:33:52.162Z,19.08
2023-02-04T20:36:55.366Z,20.25
2023-02-04T20:39:57.349Z,20.33
2023-02-04T20:43:16.942Z,19.64
2023-02-04T20:46:25.136Z,19.66
2023-02-04T20:49:27.231Z,20.08
2023-02-04T20:52:41.245Z,19.95
2023-02-04T20:55:51.455Z,19.34
2023-02-04T20:59:18.048Z,19.98
2023-02-04T21:02:23.219Z,19.90
2023-02-04T21:05:25.368Z,18.87
2023-02-04T21:08:42.887Z,20.19
2023-02-04T21:11:44.934Z,20.16
2023-02-04T21:14:47.038Z,18.95
2023-02-04T21:17:49.124Z,20.05
2023-02-04T21:20:51.364Z,20.24
2023-02-04T21:23:53.637Z,19.29
2023-02-04T21:26:55.623Z,19.70
2023-02-04T21:29:57.781Z,20.18
2023-02-04T21:33:01.159Z,19.94
2023-02-04T21:36:03.348Z,19.55
2023-02-04T21:39:06.968Z,20.32
2023-02-04T21:42:13.505Z,20.23
2023-02-04T21:45:18.039Z,19.08
2023-02-04T21:48:21.369Z,20.04
2023-02-04T21:51:23.518Z,20.03
2023-02-04T21:54:25.551Z,18.93
2023-02-04T21:57:27.624Z,19.78
2023-02-04T22:00:30.050Z,20.24
2023-02-04T22:03:33.514Z,19.43
2023-02-04T22:06:36.848Z,19.31
2023-02-04T22:09:38.893Z,19.80
2023-02-04T22:12:41.099Z,20.04
2023-02-04T22:15:43.052Z,18.48
2023-02-04T22:18:45.052Z,19.63
2023-02-04T22:21:47.132Z,19.23
2023-02-04T22:24:49.297Z,18.83
2023-02-04T22:27:55.849Z,19.42
2023-02-04T22:30:58.015Z,19.55
2023-02-04T22:34:00.529Z,19.42
2023-02-04T22:37:02.790Z,19.25
2023-02-04T22:40:06.037Z,19.75
2023-02-04T22:43:08.171Z,19.69
2023-02-04T22:46:10.405Z,18.40
2023-02-04T22:49:12.476Z,19.13
2023-02-04T22:52:15.024Z,19.30
2023-02-04T22:55:17.307Z,18.19
2023-02-04T22:58:19.435Z,18.96
2023-02-04T23:01:21.714Z,19.01
2023-02-04T23:04:24.213Z,18.69
2023-02-04T23:07:26.656Z,18.19
2023-02-04T23:10:28.749Z,19.07
2023-02-04T23:13:31.450Z,19.44
2023-02-04T23:16:33.576Z,18.16
2023-02-04T23:19:35.686Z,18.76
2023-02-04T23:22:38.080Z,19.35
2023-02-04T23:25:40.439Z,18.01
2023-02-04T23:28:43.080Z,18.57
2023-02-04T23:31:45.657Z,19.30
2023-02-04T23:34:47.692Z,18.72
2023-02-04T23:37:49.858Z,18.33
2023-02-04T23:40:53.369Z,19.00
2023-02-04T23:43:55.407Z,19.01
2023-02-04T23:46:57.541Z,17.89
2023-02-04T23:49:59.605Z,18.94
2023-02-04T23:53:01.622Z,19.21
2023-02-04T23:56:03.775Z,18.11
2023-02-04T23:59:06.686Z,18.76
